createdAt,value
2018-08-13T07:40:08.508Z,993.98
2018-08-13T07:41:08.499Z,993.96
2018-08-13T07:42:08.529Z,993.98
2018-08-13T07:43:08.479Z,993.94
2018-08-13T07:44:08.462Z,994.03
2018-08-13T07:45:08.440Z,994.03
2018-08-13T07:46:08.433Z,994.06
2018-08-13T07:47:08.429Z,994.08
2018-08-13T07:48:08.444Z,994.12
2018-08-13T07:49:08.394Z,994.14
2018-08-13T07:50:08.409Z,994.17
2018-08-13T07:51:08.391Z,994.16
2018-08-13T07:52:08.385Z,994.15
2018-08-13T07:53:08.422Z,994.17
2018-08-13T07:54:08.366Z,994.18
2018-08-13T07:55:08.363Z,994.21
2018-08-13T07:56:08.372Z,994.24
2018-08-13T07:57:09.015Z,994.20
2018-08-13T07:58:08.403Z,994.19
2018-08-13T07:59:08.326Z,994.22
2018-08-13T08:00:08.391Z,994.26
2018-08-13T08:01:18.040Z,994.25
2018-08-13T08:02:09.112Z,994.27
2018-08-13T08:03:13.561Z,994.25
2018-08-13T08:04:08.456Z,994.30
2018-08-13T08:05:08.406Z,994.27
2018-08-13T08:06:09.187Z,994.32
2018-08-13T08:07:08.269Z,994.35
2018-08-13T08:08:08.283Z,994.35
2018-08-13T08:09:08.315Z,994.34
2018-08-13T08:10:08.388Z,994.39
2018-08-13T08:11:08.262Z,994.42
2018-08-13T08:12:08.224Z,994.47
2018-08-13T08:13:08.221Z,994.48
2018-08-13T08:14:08.224Z,994.53
2018-08-13T08:15:08.274Z,994.54
2018-08-13T08:16:08.204Z,994.52
2018-08-13T08:17:08.188Z,994.55
2018-08-13T08:18:08.190Z,994.54
2018-08-13T08:19:08.179Z,994.57
2018-08-13T08:20:08.180Z,994.53
2018-08-13T08:21:08.517Z,994.49
2018-08-13T08:24:29.541Z,994.57
2018-08-13T08:25:40.966Z,994.54
2018-08-13T08:26:30.389Z,994.55
2018-08-13T08:27:29.510Z,994.53
2018-08-13T08:28:29.544Z,994.54
2018-08-13T08:29:30.451Z,994.47
2018-08-13T08:30:29.457Z,994.51
2018-08-13T08:31:31.439Z,994.48
2018-08-13T08:32:29.451Z,994.48
2018-08-13T08:33:29.446Z,994.49
2018-08-13T08:34:29.486Z,994.46
2018-08-13T08:35:29.424Z,994.48
2018-08-13T08:36:29.418Z,994.45
2018-08-13T08:37:29.414Z,994.43
2018-08-13T08:38:29.415Z,994.45
2018-08-13T08:39:29.393Z,994.43
2018-08-13T08:40:29.477Z,994.42
2018-08-13T08:41:29.429Z,994.43
2018-08-13T08:42:32.207Z,994.43
2018-08-13T08:43:29.387Z,994.41
2018-08-13T08:44:30.013Z,994.34
2018-08-13T08:45:29.514Z,994.26
2018-08-13T08:46:29.339Z,994.23
2018-08-13T08:47:29.368Z,994.18
2018-08-13T08:48:29.384Z,994.22
2018-08-13T08:49:29.307Z,994.22
2018-08-13T08:50:29.339Z,994.23
2018-08-13T08:51:29.289Z,994.17
2018-08-13T08:52:29.287Z,994.07
2018-08-13T08:53:29.319Z,994.04
2018-08-13T08:54:29.268Z,994.03
2018-08-13T08:55:29.331Z,994.05
2018-08-13T08:56:29.262Z,994.03
2018-08-13T08:57:29.245Z,994.05
2018-08-13T08:58:29.238Z,994.13
2018-08-13T08:59:29.265Z,994.14
2018-08-13T09:00:29.222Z,994.12
2018-08-13T09:01:29.221Z,994.16
2018-08-13T09:02:29.201Z,994.16
2018-08-13T09:03:29.199Z,994.10
2018-08-13T09:04:29.186Z,994.02
2018-08-13T09:05:29.228Z,993.99
2018-08-13T09:06:29.188Z,994.02
2018-08-13T09:07:29.176Z,994.01
2018-08-13T09:08:29.157Z,993.98
2018-08-13T09:09:29.147Z,993.98
2018-08-13T09:10:29.135Z,994.00
2018-08-13T09:11:29.139Z,994.02
2018-08-13T09:12:29.120Z,994.12
2018-08-13T09:13:29.131Z,994.12
2018-08-13T09:14:29.116Z,994.12
2018-08-13T09:15:29.136Z,994.14
2018-08-13T09:16:29.102Z,994.15
2018-08-13T09:17:29.088Z,994.17
2018-08-13T09:18:29.077Z,994.18
2018-08-13T09:19:29.069Z,994.17
2018-08-13T09:20:29.103Z,994.13
2018-08-13T09:21:29.085Z,994.15
2018-08-13T09:22:29.073Z,994.17
2018-08-13T09:23:29.039Z,994.16
2018-08-13T09:24:29.038Z,994.11
2018-08-13T09:25:29.098Z,994.12
2018-08-13T09:26:29.017Z,994.13
2018-08-13T09:27:29.006Z,994.13
2018-08-13T09:28:30.766Z,994.10
2018-08-13T09:29:28.992Z,994.12
2018-08-13T09:30:29.035Z,994.14
2018-08-13T09:31:28.997Z,994.11
2018-08-13T09:40:13.700Z,994.32
2018-08-13T09:41:11.391Z,994.32
2018-08-13T10:19:22.803Z,994.26
2018-08-13T10:20:01.054Z,994.30
2018-08-13T10:21:01.022Z,994.28
2018-08-13T10:22:01.027Z,994.30
2018-08-13T10:23:03.163Z,994.27
2018-08-13T10:24:01.035Z,994.28
2018-08-13T10:25:00.990Z,994.27
2018-08-13T10:26:02.751Z,994.27
2018-08-13T10:32:10.656Z,994.17
2018-08-13T10:56:58.656Z,993.99
2018-08-13T10:57:58.559Z,994.01
2018-08-13T10:58:58.583Z,994.03
2018-08-13T11:00:01.375Z,994.05
2018-08-13T11:01:01.461Z,994.11
2018-08-13T11:01:58.534Z,994.11
2018-08-13T11:02:58.641Z,994.04
2018-08-13T11:07:30.290Z,994.02
2018-08-13T11:08:30.929Z,993.99
2018-08-13T11:09:35.662Z,993.95
2018-08-13T11:10:30.099Z,993.96
2018-08-13T11:17:58.154Z,993.84
2018-08-13T11:18:59.884Z,993.86
2018-08-13T11:19:58.160Z,993.85
2018-08-13T11:20:57.957Z,993.83
2018-08-13T11:21:57.871Z,993.81
2018-08-13T11:22:57.861Z,993.78
2018-08-13T11:24:09.492Z,993.75
2018-08-13T11:24:58.990Z,993.78
2018-08-13T11:27:06.758Z,993.80
2018-08-13T11:27:07.241Z,993.81
2018-08-13T11:31:46.547Z,993.77
2018-08-13T11:37:53.662Z,993.71
2018-08-13T11:38:51.404Z,993.70
2018-08-13T11:39:50.605Z,993.66
2018-08-13T11:41:12.942Z,993.66
2018-08-13T11:41:50.464Z,993.67
2018-08-13T11:42:50.490Z,993.69
2018-08-13T11:43:50.463Z,993.68
2018-08-13T11:44:51.392Z,993.74
2018-08-13T11:45:50.440Z,993.71
2018-08-13T11:46:50.440Z,993.70
2018-08-13T11:47:50.450Z,993.64
2018-08-13T11:48:50.423Z,993.66
2018-08-13T11:49:50.414Z,993.67
2018-08-13T11:50:50.402Z,993.67
2018-08-13T11:51:50.405Z,993.64
2018-08-13T11:53:02.925Z,993.59
2018-08-13T11:53:52.549Z,993.64
2018-08-13T11:54:50.392Z,993.63
2018-08-13T11:55:50.377Z,993.58
2018-08-13T11:56:50.369Z,993.59
2018-08-13T11:57:50.384Z,993.52
2018-08-13T11:58:50.361Z,993.70
2018-08-13T11:59:50.398Z,993.51
2018-08-13T12:00:50.345Z,993.66
2018-08-13T12:01:50.346Z,993.59
2018-08-13T12:02:50.327Z,993.55
2018-08-13T12:03:50.328Z,993.52
2018-08-13T12:04:50.351Z,993.44
2018-08-13T12:05:50.340Z,993.52
2018-08-13T12:06:50.361Z,993.46
2018-08-13T12:07:50.302Z,993.38
2018-08-13T12:08:50.293Z,993.33
2018-08-13T12:09:50.899Z,993.40
2018-08-13T12:10:50.353Z,993.37
2018-08-13T12:11:50.285Z,993.35
2018-08-13T12:12:50.292Z,993.36
2018-08-13T12:13:50.270Z,993.34
2018-08-13T12:14:50.250Z,993.29
2018-08-13T12:15:50.254Z,993.33
2018-08-13T12:16:50.291Z,993.32
2018-08-13T12:17:50.256Z,993.27
2018-08-13T12:18:50.282Z,993.25
2018-08-13T12:19:50.246Z,993.28
2018-08-13T12:20:50.232Z,993.24
2018-08-13T12:21:50.225Z,993.24
2018-08-13T12:22:50.233Z,993.26
2018-08-13T12:23:50.212Z,993.22
2018-08-13T12:24:50.216Z,993.24
2018-08-13T12:25:50.244Z,993.25
2018-08-13T12:26:50.207Z,993.25
2018-08-13T12:27:50.217Z,993.30
2018-08-13T12:28:50.203Z,993.20
2018-08-13T12:29:50.189Z,993.23
2018-08-13T12:30:50.214Z,993.29
2018-08-13T12:31:50.230Z,993.26
2018-08-13T12:32:50.176Z,993.27
2018-08-13T12:33:50.166Z,993.28
2018-08-13T12:34:50.177Z,993.27
2018-08-13T12:35:50.183Z,993.37
2018-08-13T12:36:50.199Z,993.27
2018-08-13T12:37:50.161Z,993.28
2018-08-13T12:38:50.148Z,993.21
2018-08-13T12:39:50.426Z,993.27
2018-08-13T12:40:50.146Z,993.18
2018-08-13T12:41:50.122Z,993.17
2018-08-13T12:42:50.156Z,993.18
2018-08-13T12:43:50.130Z,993.18
2018-08-13T12:44:50.124Z,993.22
2018-08-13T12:45:50.121Z,993.21
2018-08-13T12:46:50.105Z,993.24
2018-08-13T12:47:50.133Z,993.26
2018-08-13T12:48:50.130Z,993.22
2018-08-13T12:49:50.095Z,993.20
2018-08-13T12:50:50.111Z,993.17
2018-08-13T12:51:50.083Z,993.18
2018-08-13T12:52:50.086Z,993.19
2018-08-13T12:53:50.078Z,993.18
2018-08-13T12:54:50.085Z,993.20
2018-08-13T12:55:50.059Z,993.13
2018-08-13T12:56:50.061Z,993.16
2018-08-13T12:57:50.075Z,993.18
2018-08-13T12:58:50.062Z,993.17
2018-08-13T12:59:50.054Z,993.20
2018-08-13T13:00:50.044Z,993.22
2018-08-13T13:01:50.146Z,993.14
2018-08-13T13:02:50.043Z,993.16
2018-08-13T13:03:50.058Z,993.16
2018-08-13T13:04:50.030Z,993.20
2018-08-13T13:05:50.032Z,993.20
2018-08-13T13:06:50.019Z,993.14
2018-08-13T13:07:50.049Z,993.07
2018-08-13T13:08:50.014Z,993.03
2018-08-13T13:09:52.923Z,993.06
2018-08-13T13:10:50.001Z,993.06
2018-08-13T13:11:49.996Z,993.03
2018-08-13T13:12:50.014Z,993.05
2018-08-13T13:13:50.034Z,992.99
2018-08-13T13:14:50.009Z,993.02
2018-08-13T13:15:49.980Z,993.02
2018-08-13T13:16:49.966Z,992.99
2018-08-13T13:17:49.973Z,993.03
2018-08-13T13:18:50.063Z,992.98
2018-08-13T13:19:50.002Z,993.05
2018-08-13T13:20:49.967Z,993.00
2018-08-13T13:21:49.944Z,993.00
2018-08-13T13:22:49.929Z,993.04
2018-08-13T13:23:49.979Z,993.00
2018-08-13T13:24:50.453Z,993.01
2018-08-13T13:25:49.952Z,993.04
2018-08-13T13:26:49.919Z,993.00
2018-08-13T13:28:22.337Z,993.00
2018-08-13T13:28:49.954Z,993.00
2018-08-13T13:29:49.943Z,993.04
2018-08-13T13:30:51.534Z,992.96
2018-08-13T13:31:50.606Z,992.97
2018-08-13T13:32:49.909Z,992.92
2018-08-13T13:33:50.518Z,992.90
2018-08-13T13:34:54.005Z,992.90
2018-08-13T13:35:49.877Z,992.87
2018-08-13T13:40:07.959Z,992.82
2018-08-13T13:41:07.436Z,992.70
2018-08-13T13:42:07.439Z,992.64
2018-08-13T13:43:17.836Z,992.83
2018-08-13T13:44:07.410Z,992.82
2018-08-13T14:02:36.886Z,992.57
2018-08-13T14:03:34.555Z,992.61
2018-08-13T14:12:21.485Z,992.68
2018-08-13T14:13:12.644Z,992.66
2018-08-13T14:27:28.860Z,992.59
2018-08-13T14:28:29.515Z,992.59
2018-08-13T14:29:29.077Z,992.62
2018-08-13T14:30:28.708Z,992.66
2018-08-13T14:31:29.745Z,992.69
2018-08-13T14:32:28.836Z,992.66
2018-08-13T14:33:28.701Z,992.69
2018-08-13T14:34:30.145Z,992.68
2018-08-13T14:35:28.677Z,992.66
2018-08-13T14:36:29.023Z,992.71
2018-08-13T14:37:28.987Z,992.62
2018-08-13T14:38:30.839Z,992.59
2018-08-13T14:39:28.680Z,992.62
2018-08-13T14:40:29.065Z,992.67
2018-08-13T14:41:31.725Z,992.72
2018-08-13T14:42:28.665Z,992.77
2018-08-13T14:43:28.664Z,992.78
2018-08-13T14:50:04.703Z,992.82
2018-08-13T14:50:57.452Z,992.77
2018-08-13T14:56:21.958Z,992.74
2018-08-13T14:57:18.312Z,992.79
2018-08-13T14:58:16.294Z,992.79
2018-08-13T14:59:17.457Z,992.84
2018-08-13T15:00:14.662Z,992.90
2018-08-13T15:01:17.096Z,992.98
2018-08-13T15:02:14.629Z,993.04
2018-08-13T15:03:14.755Z,993.08
2018-08-13T15:04:14.594Z,993.08
2018-08-13T15:05:15.476Z,993.07
2018-08-13T15:06:14.712Z,993.06
2018-08-13T15:07:15.355Z,992.99
2018-08-13T15:14:45.660Z,993.11
2018-08-13T15:15:59.880Z,993.06
2018-08-13T15:16:45.837Z,993.02
2018-08-13T15:18:02.900Z,993.07
2018-08-13T15:18:53.756Z,993.07
2018-08-13T15:19:47.151Z,993.08
2018-08-13T15:20:47.597Z,993.07
2018-08-13T15:21:45.765Z,993.07
2018-08-13T15:22:45.936Z,993.07
2018-08-13T15:23:49.380Z,993.10
2018-08-13T15:24:46.696Z,993.10
2018-08-13T15:25:46.403Z,993.08
2018-08-13T15:26:45.043Z,993.06
2018-08-13T15:29:58.612Z,993.09
2018-08-13T15:30:58.565Z,993.07
2018-08-13T15:31:58.535Z,993.12
2018-08-13T15:32:58.484Z,993.10
2018-08-13T15:33:58.570Z,993.12
2018-08-13T15:34:58.474Z,993.16
2018-08-13T15:35:58.511Z,993.14
2018-08-13T15:36:58.696Z,993.12
2018-08-13T15:37:59.000Z,993.12
2018-08-13T15:38:58.457Z,993.10
2018-08-13T15:39:58.637Z,993.14
2018-08-13T15:40:58.492Z,993.15
2018-08-13T15:41:58.461Z,993.21
2018-08-13T15:42:58.425Z,993.21
2018-08-13T15:43:58.415Z,993.23
2018-08-13T15:44:58.403Z,993.23
2018-08-13T15:45:59.967Z,993.25
2018-08-13T15:47:19.428Z,993.23
2018-08-13T15:48:24.969Z,993.28
2018-08-13T15:49:00.017Z,993.26
2018-08-13T15:50:03.095Z,993.28
2018-08-13T15:50:58.370Z,993.31
2018-08-13T15:51:58.547Z,993.28
2018-08-13T15:53:00.002Z,993.21
2018-08-13T15:54:03.016Z,993.19
2018-08-13T15:55:01.014Z,993.19
2018-08-13T15:56:01.975Z,993.14
2018-08-13T15:57:02.475Z,993.11
2018-08-13T15:58:09.039Z,993.12
2018-08-13T15:58:58.339Z,993.10
2018-08-13T15:59:58.315Z,993.09
2018-08-13T16:00:59.020Z,993.11
2018-08-13T16:01:58.316Z,993.09
2018-08-13T16:03:00.040Z,993.07
2018-08-13T16:03:58.318Z,993.03
2018-08-13T16:04:58.269Z,993.02
2018-08-13T16:05:58.274Z,993.02
2018-08-13T16:06:58.261Z,993.00
2018-08-13T16:07:58.323Z,993.00
2018-08-13T16:08:58.250Z,993.04
2018-08-13T16:09:58.247Z,993.02
2018-08-13T16:10:58.259Z,993.04
2018-08-13T16:11:58.216Z,993.05
2018-08-13T16:12:58.210Z,993.09
2018-08-13T16:13:58.206Z,993.10
2018-08-13T16:14:58.208Z,993.10
2018-08-13T16:15:58.208Z,993.04
2018-08-13T16:16:58.184Z,993.09
2018-08-13T16:17:59.023Z,992.99
2018-08-13T16:18:58.178Z,993.01
2018-08-13T16:19:58.177Z,993.00
2018-08-13T16:20:58.170Z,993.02
2018-08-13T16:21:58.158Z,992.97
2018-08-13T16:22:58.147Z,992.92
2018-08-13T16:23:58.134Z,992.93
2018-08-13T16:24:58.168Z,992.90
2018-08-13T16:25:58.124Z,992.90
2018-08-13T16:26:58.112Z,992.94
2018-08-13T16:27:58.111Z,992.98
2018-08-13T16:28:58.105Z,993.00
2018-08-13T16:29:58.153Z,992.93
2018-08-13T16:30:58.091Z,992.86
2018-08-13T16:31:58.084Z,992.85
2018-08-13T16:32:58.078Z,992.87
2018-08-13T16:33:58.083Z,992.82
2018-08-13T16:34:58.053Z,992.82
2018-08-13T16:35:58.052Z,992.84
2018-08-13T16:36:58.046Z,992.77
2018-08-13T16:37:58.035Z,992.83
2018-08-13T16:38:58.034Z,992.86
2018-08-13T16:39:58.025Z,992.82
2018-08-13T16:40:58.027Z,992.84
2018-08-13T16:41:58.010Z,992.85
2018-08-13T16:42:58.014Z,992.85
2018-08-13T16:43:58.004Z,992.85
2018-08-13T16:44:57.993Z,992.82
2018-08-13T16:45:57.993Z,992.82
2018-08-13T16:46:57.965Z,992.82
2018-08-13T16:47:57.989Z,992.83
2018-08-13T16:48:57.958Z,992.91
2018-08-13T16:49:57.942Z,992.92
2018-08-13T16:50:57.940Z,992.91
2018-08-13T16:51:57.935Z,992.93
2018-08-13T16:52:57.934Z,992.82
2018-08-13T16:53:57.908Z,992.84
2018-08-13T16:54:57.966Z,992.77
2018-08-13T16:55:57.895Z,992.79
2018-08-13T16:56:57.889Z,992.77
2018-08-13T16:57:57.885Z,992.77
2018-08-13T16:58:57.882Z,992.80
2018-08-13T16:59:57.887Z,992.82
2018-08-13T17:00:57.897Z,992.79
2018-08-13T17:01:57.862Z,992.82
2018-08-13T17:02:57.894Z,992.82
2018-08-13T17:03:57.849Z,992.83
2018-08-13T17:04:57.829Z,992.84
2018-08-13T17:05:57.821Z,992.82
2018-08-13T17:06:57.821Z,992.81
2018-08-13T17:07:57.813Z,992.81
2018-08-13T17:08:57.831Z,992.83
2018-08-13T17:09:57.796Z,992.83
2018-08-13T17:10:57.808Z,992.88
2018-08-13T17:11:57.773Z,992.85
2018-08-13T17:12:57.786Z,992.84
2018-08-13T17:13:57.829Z,992.84
2018-08-13T17:14:57.765Z,992.86
2018-08-13T17:15:57.743Z,992.81
2018-08-13T17:16:57.802Z,992.84
2018-08-13T17:17:57.740Z,992.88
2018-08-13T17:18:57.725Z,992.87
2018-08-13T17:19:57.709Z,992.88
2018-08-13T17:20:57.709Z,992.82
2018-08-13T17:21:57.707Z,992.82
2018-08-13T17:22:57.702Z,992.80
2018-08-13T17:23:57.694Z,992.83
2018-08-13T17:24:57.762Z,992.82
2018-08-13T17:25:57.660Z,992.83
2018-08-13T17:26:57.664Z,992.83
2018-08-13T17:27:57.688Z,992.79
2018-08-13T17:28:57.645Z,992.81
2018-08-13T17:29:57.640Z,992.81
2018-08-13T17:30:57.664Z,992.82
2018-08-13T17:31:57.662Z,992.80
2018-08-13T17:32:57.679Z,992.81
2018-08-13T17:33:57.653Z,992.86
2018-08-13T17:34:57.605Z,992.84
2018-08-13T17:35:57.725Z,992.83
2018-08-13T17:36:57.581Z,992.83
2018-08-13T17:37:57.578Z,992.82
2018-08-13T17:38:57.623Z,992.84
2018-08-13T17:39:57.568Z,992.85
2018-08-13T17:40:57.560Z,992.86
2018-08-13T17:41:57.550Z,992.83
2018-08-13T17:42:57.735Z,992.87
2018-08-13T17:43:57.559Z,992.84
2018-08-13T17:44:57.525Z,992.83
2018-08-13T17:45:57.575Z,992.83
2018-08-13T17:46:57.524Z,992.81
2018-08-13T17:47:57.505Z,992.78
2018-08-13T17:48:57.530Z,992.76
2018-08-13T17:49:57.483Z,992.79
2018-08-13T17:50:57.482Z,992.84
2018-08-13T17:51:57.477Z,992.86
2018-08-13T17:52:57.455Z,992.88
2018-08-13T17:53:57.597Z,992.84
2018-08-13T17:54:57.443Z,992.82
2018-08-13T17:55:57.444Z,992.81
2018-08-13T17:56:57.444Z,992.82
2018-08-13T17:57:57.423Z,992.81
2018-08-13T17:58:57.453Z,992.82
2018-08-13T17:59:57.424Z,992.83
2018-08-13T18:00:57.407Z,992.84
2018-08-13T18:01:57.414Z,992.82
2018-08-13T18:02:57.404Z,992.89
2018-08-13T18:03:57.400Z,992.85
2018-08-13T18:04:57.388Z,992.88
2018-08-13T18:05:57.371Z,992.89
2018-08-13T18:06:57.363Z,992.93
2018-08-13T18:07:57.355Z,992.94
2018-08-13T18:08:57.351Z,993.01
2018-08-13T18:09:57.347Z,993.01
2018-08-13T18:10:57.337Z,993.03
2018-08-13T18:11:57.334Z,993.07
2018-08-13T18:12:57.316Z,993.10
2018-08-13T18:13:57.364Z,993.10
2018-08-13T18:14:57.349Z,993.10
2018-08-13T18:15:57.297Z,993.12
2018-08-13T18:16:57.289Z,993.16
2018-08-13T18:17:57.288Z,993.23
2018-08-13T18:18:57.262Z,993.21
2018-08-13T18:19:57.252Z,993.27
2018-08-13T18:20:57.604Z,993.28
2018-08-13T18:21:57.250Z,993.31
2018-08-13T18:22:57.243Z,993.31
2018-08-13T18:23:57.237Z,993.34
2018-08-13T18:24:57.215Z,993.33
2018-08-13T18:25:57.207Z,993.36
2018-08-13T18:26:57.228Z,993.38
2018-08-13T18:27:57.194Z,993.43
2018-08-13T18:28:57.193Z,993.44
2018-08-13T18:29:57.197Z,993.47
2018-08-13T18:30:57.165Z,993.44
2018-08-13T18:31:57.165Z,993.47
2018-08-13T18:32:57.147Z,993.46
2018-08-13T18:33:57.150Z,993.41
2018-08-13T18:34:57.154Z,993.46
2018-08-13T18:35:57.156Z,993.50
2018-08-13T18:36:57.129Z,993.44
2018-08-13T18:37:57.119Z,993.46
2018-08-13T18:38:57.120Z,993.44
2018-08-13T18:39:57.484Z,993.45
2018-08-13T18:40:57.101Z,993.42
2018-08-13T18:41:57.086Z,993.47
2018-08-13T18:42:57.077Z,993.50
2018-08-13T18:43:57.066Z,993.50
2018-08-13T18:44:57.589Z,993.49
2018-08-13T18:45:57.089Z,993.50
2018-08-13T18:46:57.086Z,993.52
2018-08-13T18:47:57.584Z,993.53
2018-08-13T18:48:57.026Z,993.57
2018-08-13T18:49:57.018Z,993.56
2018-08-13T18:50:57.001Z,993.61
2018-08-13T18:51:57.133Z,993.59
2018-08-13T18:52:56.991Z,993.65
2018-08-13T18:53:57.012Z,993.64
2018-08-13T18:54:56.975Z,993.68
2018-08-13T18:55:56.969Z,993.70
2018-08-13T18:56:56.965Z,993.71
2018-08-13T18:57:56.947Z,993.74
2018-08-13T18:58:56.941Z,993.73
2018-08-13T18:59:56.938Z,993.73
2018-08-13T19:00:56.925Z,993.74
2018-08-13T19:01:56.996Z,993.77
2018-08-13T19:02:56.908Z,993.78
2018-08-13T19:03:56.933Z,993.77
2018-08-13T19:04:56.890Z,993.74
2018-08-13T19:05:56.887Z,993.73
2018-08-13T19:06:56.877Z,993.76
2018-08-13T19:07:56.865Z,993.74
2018-08-13T19:08:56.861Z,993.77
2018-08-13T19:09:56.972Z,993.73
2018-08-13T19:10:56.829Z,993.79
2018-08-13T19:11:56.862Z,993.79
2018-08-13T19:12:56.818Z,993.80
2018-08-13T19:13:56.818Z,993.78
2018-08-13T19:14:56.797Z,993.82
2018-08-13T19:15:56.828Z,993.84
2018-08-13T19:16:56.785Z,993.82
2018-08-13T19:17:56.779Z,993.82
2018-08-13T19:18:56.772Z,993.86
2018-08-13T19:19:56.795Z,993.82
2018-08-13T19:20:56.788Z,993.80
2018-08-13T19:21:58.594Z,993.81
2018-08-13T19:22:56.734Z,993.82
2018-08-13T19:23:56.745Z,993.86
2018-08-13T19:24:57.131Z,993.88
2018-08-13T19:25:56.718Z,993.87
2018-08-13T19:26:56.715Z,993.89
2018-08-13T19:27:56.688Z,993.88
2018-08-13T19:28:56.688Z,993.88
2018-08-13T19:29:56.674Z,993.86
2018-08-13T19:30:56.676Z,993.92
2018-08-13T19:31:56.649Z,993.92
2018-08-13T19:32:56.666Z,993.93
2018-08-13T19:33:56.676Z,993.95
2018-08-13T19:34:56.635Z,994.01
2018-08-13T19:35:56.615Z,993.95
2018-08-13T19:36:56.653Z,993.97
2018-08-13T19:37:56.627Z,993.97
2018-08-13T19:38:56.599Z,994.00
2018-08-13T19:39:56.587Z,994.03
2018-08-13T19:40:56.579Z,994.07
2018-08-13T19:41:56.569Z,994.06
2018-08-13T19:42:56.655Z,994.05
2018-08-13T19:43:56.556Z,994.10
2018-08-13T19:44:56.537Z,994.09
2018-08-13T19:45:56.596Z,994.12
2018-08-13T19:46:56.550Z,994.09
2018-08-13T19:47:56.553Z,994.14
2018-08-13T19:48:56.511Z,994.15
2018-08-13T19:49:56.571Z,994.17
2018-08-13T19:50:56.488Z,994.20
2018-08-13T19:51:56.484Z,994.23
2018-08-13T19:52:56.475Z,994.26
2018-08-13T19:53:56.472Z,994.26
2018-08-13T19:54:56.493Z,994.28
2018-08-13T19:55:56.449Z,994.30
2018-08-13T19:56:56.440Z,994.29
2018-08-13T19:57:56.447Z,994.30
2018-08-13T19:58:56.432Z,994.32
2018-08-13T19:59:56.444Z,994.32
2018-08-13T20:00:56.473Z,994.29
2018-08-13T20:01:56.400Z,994.27
2018-08-13T20:02:56.389Z,994.34
2018-08-13T20:03:56.388Z,994.30
2018-08-13T20:04:56.366Z,994.27
2018-08-13T20:05:56.359Z,994.27
2018-08-13T20:06:56.355Z,994.31
2018-08-13T20:07:56.343Z,994.27
2018-08-13T20:08:56.338Z,994.33
2018-08-13T20:09:56.340Z,994.30
2018-08-13T20:10:56.327Z,994.28
2018-08-13T20:11:56.320Z,994.36
2018-08-13T20:12:56.305Z,994.31
2018-08-13T20:13:56.285Z,994.29
2018-08-13T20:14:56.319Z,994.34
2018-08-13T20:15:56.271Z,994.39
2018-08-13T20:16:56.257Z,994.37
2018-08-13T20:17:56.258Z,994.38
2018-08-13T20:18:56.251Z,994.34
2018-08-13T20:19:56.247Z,994.32
2018-08-13T20:20:56.263Z,994.30
2018-08-13T20:21:56.227Z,994.27
2018-08-13T20:22:56.207Z,994.26
2018-08-13T20:23:56.196Z,994.24
2018-08-13T20:24:56.197Z,994.25
2018-08-13T20:25:56.197Z,994.28
2018-08-13T20:26:56.177Z,994.31
2018-08-13T20:27:56.248Z,994.28
2018-08-13T20:28:56.168Z,994.32
2018-08-13T20:29:56.152Z,994.34
2018-08-13T20:30:56.150Z,994.34
2018-08-13T20:31:56.177Z,994.36
2018-08-13T20:32:56.145Z,994.35
2018-08-13T20:33:56.116Z,994.37
2018-08-13T20:34:56.108Z,994.38
2018-08-13T20:35:56.121Z,994.38
2018-08-13T20:36:56.123Z,994.42
2018-08-13T20:37:56.074Z,994.42
2018-08-13T20:38:56.190Z,994.42
2018-08-13T20:39:56.137Z,994.43
2018-08-13T20:40:56.629Z,994.41
2018-08-13T20:41:56.044Z,994.41
2018-08-13T20:42:56.047Z,994.38
2018-08-13T20:43:56.027Z,994.35
2018-08-13T20:44:56.030Z,994.35
2018-08-13T20:45:56.038Z,994.37
2018-08-13T20:46:56.634Z,994.36
2018-08-13T20:47:56.033Z,994.38
2018-08-13T20:48:55.985Z,994.37
2018-08-13T20:49:55.981Z,994.35
2018-08-13T20:50:56.649Z,994.37
2018-08-13T20:51:55.961Z,994.38
2018-08-13T20:52:55.980Z,994.35
2018-08-13T20:53:55.946Z,994.35
2018-08-13T20:54:56.159Z,994.37
2018-08-13T20:55:55.931Z,994.38
2018-08-13T20:56:55.912Z,994.37
2018-08-13T20:57:55.900Z,994.40
2018-08-13T20:58:55.934Z,994.37
2018-08-13T20:59:55.881Z,994.38
2018-08-13T21:00:56.169Z,994.43
2018-08-13T21:01:55.869Z,994.39
2018-08-13T21:02:55.856Z,994.47
2018-08-13T21:03:55.857Z,994.43
2018-08-13T21:04:55.841Z,994.40
2018-08-13T21:05:55.851Z,994.43
2018-08-13T21:06:55.827Z,994.43
2018-08-13T21:07:55.827Z,994.40
2018-08-13T21:08:55.814Z,994.40
2018-08-13T21:09:55.795Z,994.39
2018-08-13T21:10:56.120Z,994.42
2018-08-13T21:11:55.783Z,994.40
2018-08-13T21:12:56.654Z,994.44
2018-08-13T21:13:55.754Z,994.43
2018-08-13T21:14:55.747Z,994.44
2018-08-13T21:15:55.737Z,994.46
2018-08-13T21:16:55.783Z,994.44
2018-08-13T21:17:55.724Z,994.45
2018-08-13T21:18:55.713Z,994.49
2018-08-13T21:19:55.698Z,994.50
2018-08-13T21:20:55.694Z,994.47
2018-08-13T21:21:56.643Z,994.48
2018-08-13T21:22:55.712Z,994.52
2018-08-13T21:23:55.661Z,994.50
2018-08-13T21:24:55.659Z,994.51
2018-08-13T21:25:55.652Z,994.53
2018-08-13T21:26:55.676Z,994.55
2018-08-13T21:27:55.625Z,994.56
2018-08-13T21:28:55.624Z,994.55
2018-08-13T21:29:55.613Z,994.55
2018-08-13T21:30:55.605Z,994.53
2018-08-13T21:31:55.597Z,994.56
2018-08-13T21:32:55.672Z,994.53
2018-08-13T21:33:55.572Z,994.57
2018-08-13T21:34:55.570Z,994.57
2018-08-13T21:35:55.543Z,994.58
2018-08-13T21:36:55.543Z,994.59
2018-08-13T21:37:55.541Z,994.59
2018-08-13T21:38:55.528Z,994.57
2018-08-13T21:39:55.523Z,994.57
2018-08-13T21:40:55.511Z,994.60
2018-08-13T21:41:55.492Z,994.58
2018-08-13T21:42:55.499Z,994.58
2018-08-13T21:43:55.748Z,994.60
2018-08-13T21:44:55.470Z,994.61
2018-08-13T21:45:55.462Z,994.65
2018-08-13T21:46:55.448Z,994.65
2018-08-13T21:47:56.167Z,994.64
2018-08-13T21:48:55.435Z,994.65
2018-08-13T21:49:55.455Z,994.64
2018-08-13T21:50:55.409Z,994.64
2018-08-13T21:51:56.165Z,994.67
2018-08-13T21:52:55.398Z,994.68
2018-08-13T21:53:55.404Z,994.70
2018-08-13T21:54:55.376Z,994.66
2018-08-13T21:55:55.389Z,994.73
2018-08-13T21:56:55.356Z,994.74
2018-08-13T21:57:57.160Z,994.75
2018-08-13T21:58:55.338Z,994.69
2018-08-13T21:59:55.335Z,994.71
2018-08-13T22:00:55.324Z,994.70
2018-08-13T22:01:55.327Z,994.76
2018-08-13T22:02:57.167Z,994.76
2018-08-13T22:03:55.296Z,994.72
2018-08-13T22:04:55.270Z,994.72
2018-08-13T22:05:55.337Z,994.76
2018-08-13T22:06:55.259Z,994.72
2018-08-13T22:07:55.249Z,994.79
2018-08-13T22:08:55.248Z,994.76
2018-08-13T22:09:55.247Z,994.78
2018-08-13T22:10:55.228Z,994.77
2018-08-13T22:11:55.288Z,994.78
2018-08-13T22:12:56.180Z,994.79
2018-08-13T22:13:55.242Z,994.76
2018-08-13T22:14:55.173Z,994.74
2018-08-13T22:15:55.180Z,994.77
2018-08-13T22:16:55.169Z,994.75
2018-08-13T22:17:55.185Z,994.78
2018-08-13T22:18:55.675Z,994.76
2018-08-13T22:19:55.141Z,994.76
2018-08-13T22:20:55.133Z,994.78
2018-08-13T22:21:55.125Z,994.75
2018-08-13T22:22:55.159Z,994.77
2018-08-13T22:23:55.086Z,994.81
2018-08-13T22:24:55.080Z,994.80
2018-08-13T22:25:55.069Z,994.85
2018-08-13T22:26:55.064Z,994.83
2018-08-13T22:27:55.053Z,994.83
2018-08-13T22:28:55.060Z,994.84
2018-08-13T22:29:55.044Z,994.90
2018-08-13T22:30:55.040Z,994.93
2018-08-13T22:31:55.028Z,994.93
2018-08-13T22:32:55.009Z,994.91
2018-08-13T22:33:55.037Z,995.00
2018-08-13T22:34:55.037Z,994.99
2018-08-13T22:35:54.995Z,995.00
2018-08-13T22:36:54.977Z,995.00
2018-08-13T22:37:54.965Z,994.94
2018-08-13T22:38:54.956Z,994.97
2018-08-13T22:39:54.985Z,995.01
2018-08-13T22:40:54.942Z,995.01
2018-08-13T22:41:54.928Z,995.03
2018-08-13T22:42:54.971Z,995.01